Time;durP1;ratioP1;P1;durP2;ratioP2;P2;SDS_P1;SDS_P2;PMS_P1;PMS_P2;Temp;Humidity;BMP_temperature;BMP_pressure;BME280_temperature;BME280_humidity;BME280_pressure;Samples;Min_cycle;Max_cycle;Signal;HPM_P1;HPM_P2
2022/05/31 00:02:22;16436.00;0.05;29.10;0.00;0.00;0.62;;;;;16.30;1.00;;;;;;2288469;60;1070;-84
2022/05/31 00:04:49;123611384.00;412.04;76518344.00;83119.00;0.28;144.42;;;;;16.10;1.00;;;;;;2288486;60;1470;-85
2022/05/31 00:07:16;184154.00;0.61;318.64;87111.00;0.29;151.32;;;;;16.30;1.00;;;;;;2288556;60;1977;-85
2022/05/31 00:09:43;195451.00;0.65;338.09;84598.00;0.28;146.98;;;;;16.30;1.00;;;;;;2288553;60;1003;-85
2022/05/31 00:12:12;227214.00;0.76;392.76;78464.00;0.26;136.38;;;;;16.30;1.00;;;;;;2288499;60;1014;-84
2022/05/31 00:14:40;447970.00;1.49;772.29;111414.00;0.37;193.27;;;;;16.50;1.00;;;;;;2288470;60;1411;-84
2022/05/31 00:17:07;73650.00;0.25;128.07;0.00;0.00;0.62;;;;;16.60;1.00;;;;;;2288508;60;1327;-84
2022/05/31 00:19:36;62450.00;0.21;108.71;0.00;0.00;0.62;;;;;16.40;1.00;;;;;;2288428;60;1643;-84
2022/05/31 00:22:08;5730.00;0.02;10.55;0.00;0.00;0.62;;;;;16.40;1.00;;;;;;2288527;60;967;-84
2022/05/31 00:24:37;122585024.00;408.62;74626368.00;75352.00;0.25;131.01;;;;;16.30;1.00;;;;;;2288516;60;1414;-84
2022/05/31 00:27:05;172140.00;0.57;297.95;80159.00;0.27;139.31;;;;;16.50;1.00;;;;;;2289635;60;1931;-84
2022/05/31 00:29:32;167408.00;0.56;289.80;80237.00;0.27;139.45;;;;;16.30;1.00;;;;;;2289835;60;1066;-83
2022/05/31 00:32:02;171124.00;0.57;296.20;92360.00;0.31;160.38;;;;;16.30;1.00;;;;;;2289879;60;1210;-84
2022/05/31 00:34:30;214105.00;0.71;370.20;82950.00;0.28;144.13;;;;;16.40;1.00;;;;;;2289828;60;1679;-83
2022/05/31 00:36:58;464277.00;1.55;800.34;167298.00;0.56;289.61;;;;;16.40;1.00;;;;;;2289801;60;1101;-84
2022/05/31 00:39:25;172807.00;0.58;299.10;88570.00;0.30;153.84;;;;;16.20;1.00;;;;;;2289733;60;1660;-84
2022/05/31 00:42:03;208995.00;0.70;361.41;83095.00;0.28;144.38;;;;;16.30;1.00;;;;;;2289777;60;1124;-84
2022/05/31 00:44:32;259051.00;0.86;447.52;82765.00;0.28;143.81;;;;;16.20;1.00;;;;;;2289829;60;1461;-84
2022/05/31 00:47:03;177047.00;0.59;306.40;80086.00;0.27;139.19;;;;;16.20;1.00;;;;;;2289824;60;2003;-83
2022/05/31 00:49:34;197149.00;0.66;341.02;86185.00;0.29;149.72;;;;;16.20;1.00;;;;;;2289881;60;1027;-83
2022/05/31 00:52:07;166885.00;0.56;288.90;82139.00;0.27;142.73;;;;;16.30;1.00;;;;;;2289793;60;1411;-84
2022/05/31 00:54:38;169893.00;0.57;294.08;82717.00;0.28;143.73;;;;;16.60;1.00;;;;;;2289695;60;1538;-85
2022/05/31 00:57:07;169315.00;0.56;293.09;82874.00;0.28;144.00;;;;;16.60;1.00;;;;;;2289701;60;1320;-83
2022/05/31 00:59:39;170231.00;0.57;294.66;82876.00;0.28;144.00;;;;;16.70;1.00;;;;;;2289729;60;1062;-84
2022/05/31 01:02:07;93840.00;0.31;162.94;0.00;0.00;0.62;;;;;16.30;1.00;;;;;;2289804;60;1097;-84
2022/05/31 01:04:41;216414.00;0.72;374.17;83251.00;0.28;144.65;;;;;16.20;1.00;;;;;;2289690;60;1498;-84
2022/05/31 01:07:10;254436.00;0.85;439.58;89152.00;0.30;154.84;;;;;15.90;1.00;;;;;;2289716;60;1946;-85
2022/05/31 01:09:38;442555.00;1.48;762.98;84560.00;0.28;146.91;;;;;16.00;1.00;;;;;;2289723;60;1476;-84
2022/05/31 01:12:06;168409.00;0.56;291.53;81702.00;0.27;141.98;;;;;16.30;1.00;;;;;;2289698;60;1355;-84
2022/05/31 01:14:34;243463.00;0.81;420.71;85453.00;0.28;148.46;;;;;16.30;1.00;;;;;;2289584;60;1518;-84
2022/05/31 01:17:03;0.00;0.00;0.62;0.00;0.00;0.62;;;;;16.30;1.00;;;;;;2289764;60;1068;-83
2022/05/31 01:22:16;247507.00;0.83;427.66;83949.00;0.28;145.86;;;;;16.20;1.00;;;;;;2289778;60;643;-83
2022/05/31 01:24:53;236135.00;0.79;408.10;82810.00;0.28;143.89;;;;;16.30;1.00;;;;;;2289723;60;1392;-84
2022/05/31 01:27:38;256057.00;0.85;442.37;83922.00;0.28;145.81;;;;;15.90;1.00;;;;;;2289712;60;1936;-84
2022/05/31 01:30:08;437363.00;1.46;754.05;85956.00;0.29;149.32;;;;;16.20;1.00;;;;;;2289688;60;1093;-84
2022/05/31 01:32:41;388969.00;1.30;670.84;79425.00;0.26;138.04;;;;;16.00;1.00;;;;;;2289666;60;1113;-85
2022/05/31 01:35:12;378478.00;1.26;652.81;84035.00;0.28;146.01;;;;;16.00;1.00;;;;;;2289634;60;1396;-85
2022/05/31 01:37:46;507139.00;1.69;874.12;83390.00;0.28;144.89;;;;;16.00;1.00;;;;;;2289161;60;1085;-85
2022/05/31 01:40:21;367928.00;1.23;634.68;87154.00;0.29;151.39;;;;;16.10;1.00;;;;;;2288871;60;1018;-84
2022/05/31 01:42:48;350674.00;1.17;605.02;0.00;0.00;0.62;;;;;16.50;1.00;;;;;;2289058;60;991;-84
2022/05/31 01:45:21;695614.00;2.32;1199.63;101849.00;0.34;176.76;;;;;16.30;1.00;;;;;;2288981;60;1365;-84
2022/05/31 01:47:49;661265.00;2.20;1140.13;72714.00;0.24;126.45;;;;;16.60;1.00;;;;;;2288951;60;1967;-84
2022/05/31 01:50:19;692934.00;2.31;1194.99;99355.00;0.33;172.46;;;;;16.20;1.00;;;;;;2288962;60;1074;-84
2022/05/31 01:52:50;549258.00;1.83;946.68;51626.00;0.17;90.00;;;;;16.20;1.00;;;;;;2289008;60;1007;-85
2022/05/31 01:55:18;425653.00;1.42;733.91;80485.00;0.27;139.88;;;;;16.30;1.00;;;;;;2288950;60;1398;-85
2022/05/31 01:57:52;417359.00;1.39;719.65;85357.00;0.28;148.29;;;;;16.10;1.00;;;;;;2288965;60;927;-86
2022/05/31 02:00:20;353975.00;1.18;610.69;83495.00;0.28;145.07;;;;;15.90;1.00;;;;;;2288983;60;1136;-85
2022/05/31 02:06:25;297452.00;0.99;513.54;0.00;0.00;0.62;;;;;15.90;1.00;;;;;;2288923;60;1980;-84
2022/05/31 02:08:54;46279.00;0.15;80.75;0.00;0.00;0.62;;;;;15.90;1.00;;;;;;2288926;60;1089;-84
2022/05/31 02:11:21;83248.00;0.28;144.65;0.00;0.00;0.62;;;;;15.70;1.00;;;;;;2288917;60;1070;-84
2022/05/31 02:13:48;53856.00;0.18;93.85;0.00;0.00;0.62;;;;;15.80;1.00;;;;;;2288912;60;1364;-85
2022/05/31 02:16:15;237410.00;0.79;410.30;46716.00;0.16;81.51;;;;;15.70;1.00;;;;;;2288922;60;1079;-85
2022/05/31 02:21:35;0.00;0.00;0.62;0.00;0.00;0.62;;;;;15.80;1.00;;;;;;2288958;60;640;-83
2022/05/31 02:24:07;25987.00;0.09;45.64;0.00;0.00;0.62;;;;;16.10;1.00;;;;;;2288803;60;1415;-85
2022/05/31 02:26:34;1763.00;0.01;3.68;0.00;0.00;0.62;;;;;16.20;1.00;;;;;;2288793;60;1918;-84
2022/05/31 02:29:02;0.00;0.00;0.62;0.00;0.00;0.62;;;;;15.90;1.00;;;;;;2288869;60;888;-82
2022/05/31 02:31:30;0.00;0.00;0.62;0.00;0.00;0.62;;;;;15.70;1.00;;;;;;2288864;60;1193;-84
2022/05/31 02:33:57;0.00;0.00;0.62;0.00;0.00;0.62;;;;;15.90;1.00;;;;;;2288798;60;1297;-85
2022/05/31 02:36:24;1249.00;0.00;2.78;0.00;0.00;0.62;;;;;15.90;1.00;;;;;;2288870;60;1147;-85
2022/05/31 02:38:51;37903.00;0.13;66.26;0.00;0.00;0.62;;;;;15.90;1.00;;;;;;2288803;60;1584;-85
2022/05/31 02:41:20;809858.00;2.70;1398.32;40348.00;0.13;70.49;;;;;16.00;1.00;;;;;;2288770;60;1543;-82
2022/05/31 02:43:47;767837.00;2.56;1325.09;77548.00;0.26;134.80;;;;;16.20;1.00;;;;;;2288767;60;1437;-85
2022/05/31 02:46:15;944879.00;3.15;1635.08;146773.00;0.49;254.25;;;;;15.80;1.00;;;;;;2288782;60;1994;-85
2022/05/31 02:48:42;1190681.00;3.97;2073.38;170345.00;0.57;294.86;;;;;15.50;1.00;;;;;;2288752;60;1042;-83
2022/05/31 02:51:09;1379645.00;4.60;2418.63;188309.00;0.63;325.80;;;;;14.70;1.00;;;;;;2288776;60;1129;-84
2022/05/31 02:53:37;588766.00;1.96;1014.83;93555.00;0.31;162.45;;;;;14.30;1.00;;;;;;2288797;60;1022;-84
2022/05/31 02:56:04;893305.00;2.98;1544.36;5434.00;0.02;10.04;;;;;14.50;1.00;;;;;;2288813;60;1110;-84
2022/05/31 02:58:35;1204238.00;4.01;2097.88;81768.00;0.27;142.09;;;;;14.40;1.00;;;;;;2288822;60;1030;-83
2022/05/31 03:01:17;1313611.00;4.38;2297.04;131246.00;0.44;227.48;;;;;14.60;1.00;;;;;;2288786;60;995;-83
2022/05/31 03:03:44;1061961.00;3.54;1842.53;123230.00;0.41;213.65;;;;;15.00;1.00;;;;;;2288734;60;1442;-84
2022/05/31 03:06:11;881729.00;2.94;1524.05;101115.00;0.34;175.50;;;;;15.30;1.00;;;;;;2288635;60;1990;-85
2022/05/31 03:08:38;969629.00;3.23;1678.75;136823.00;0.46;237.09;;;;;15.20;1.00;;;;;;2288802;60;939;-84
2022/05/31 03:11:11;694727.00;2.32;1198.10;0.00;0.00;0.62;;;;;15.00;1.00;;;;;;2288750;60;1090;-85
2022/05/31 03:13:40;666608.00;2.22;1149.38;0.00;0.00;0.62;;;;;15.20;1.00;;;;;;2288790;60;938;-84
2022/05/31 03:16:07;481975.00;1.61;830.80;2423.00;0.01;4.82;;;;;14.80;1.00;;;;;;2288753;60;987;-84
2022/05/31 03:18:41;301254.00;1.00;520.08;0.00;0.00;0.62;;;;;14.50;1.00;;;;;;2288693;60;1092;-84
2022/05/31 03:21:12;328101.00;1.09;566.22;0.00;0.00;0.62;;;;;14.50;1.00;;;;;;2288695;60;1058;-84
2022/05/31 03:23:43;183429.00;0.61;317.39;0.00;0.00;0.62;;;;;14.50;1.00;;;;;;2288626;60;1867;-83
2022/05/31 03:26:12;288337.00;0.96;497.87;0.00;0.00;0.62;;;;;14.40;1.00;;;;;;2288665;60;1914;-84
2022/05/31 03:28:41;457521.00;1.53;788.72;86329.00;0.29;149.97;;;;;14.40;1.00;;;;;;2288673;60;1070;-84
2022/05/31 03:31:09;431979.00;1.44;744.79;93707.00;0.31;162.71;;;;;14.10;1.00;;;;;;2288673;60;1328;-84
2022/05/31 03:33:37;592211.00;1.97;1020.77;94154.00;0.31;163.48;;;;;14.00;1.00;;;;;;2288682;60;2089;-83
2022/05/31 03:36:05;552137.00;1.84;951.64;81663.00;0.27;141.91;;;;;13.70;1.00;;;;;;2288633;60;1388;-84
2022/05/31 03:38:32;451337.00;1.50;778.08;87584.00;0.29;152.14;;;;;13.60;1.00;;;;;;2288516;60;999;-83
2022/05/31 03:41:00;471079.00;1.57;812.05;97846.00;0.33;169.85;;;;;13.90;1.00;;;;;;2288594;60;1045;-84
2022/05/31 03:43:29;484013.00;1.61;834.30;84672.00;0.28;147.11;;;;;14.00;1.00;;;;;;2288698;60;1100;-84
2022/05/31 03:45:57;407192.00;1.36;702.17;83443.00;0.28;144.98;;;;;14.10;1.00;;;;;;2288633;60;1244;-84
2022/05/31 03:48:25;171946.00;0.57;297.62;0.00;0.00;0.62;;;;;14.50;1.00;;;;;;2288495;60;2030;-84
2022/05/31 03:51:00;492451.00;1.64;848.83;12998.00;0.04;23.14;;;;;14.70;1.00;;;;;;2288635;60;1069;-84
2022/05/31 03:53:27;309904.00;1.03;534.94;0.00;0.00;0.62;;;;;14.90;1.00;;;;;;2288631;60;1035;-83
2022/05/31 03:55:54;509466.00;1.70;878.12;0.00;0.00;0.62;;;;;15.00;1.00;;;;;;2288572;60;1358;-84
2022/05/31 03:58:21;658432.00;2.19;1135.23;7074.00;0.02;12.88;;;;;15.10;1.00;;;;;;2288508;60;1138;-85
2022/05/31 04:00:48;745553.00;2.49;1286.33;8748.00;0.03;15.78;;;;;15.50;1.00;;;;;;2288473;60;1013;-84
2022/05/31 04:03:17;298661.00;1.00;515.62;0.00;0.00;0.62;;;;;15.50;1.00;;;;;;2288593;60;1054;-84
2022/05/31 04:05:44;384548.00;1.28;663.24;0.00;0.00;0.62;;;;;15.50;1.00;;;;;;2288604;60;1373;-83
2022/05/31 04:08:12;283980.00;0.95;490.38;0.00;0.00;0.62;;;;;15.40;1.00;;;;;;2288541;60;2001;-84
2022/05/31 04:10:40;502676.00;1.68;866.43;27636.00;0.09;48.49;;;;;15.20;1.00;;;;;;2288553;60;918;-84
2022/05/31 04:13:08;205723.00;0.69;355.77;0.00;0.00;0.62;;;;;15.10;1.00;;;;;;2288607;60;1069;-84
2022/05/31 04:15:35;369818.00;1.23;637.92;0.00;0.00;0.62;;;;;15.10;1.00;;;;;;2288532;60;1347;-85
2022/05/31 04:18:02;274670.00;0.92;474.37;0.00;0.00;0.62;;;;;15.30;1.00;;;;;;2288551;60;1085;-83
2022/05/31 04:20:31;614805.00;2.05;1059.79;86511.00;0.29;150.28;;;;;15.70;1.00;;;;;;2288539;60;1050;-85
2022/05/31 04:25:39;445076.00;1.48;767.31;0.00;0.00;0.62;;;;;15.50;1.00;;;;;;2288213;60;1514;-83
2022/05/31 04:28:06;400463.00;1.33;690.60;87633.00;0.29;152.22;;;;;15.50;1.00;;;;;;2288306;60;1909;-85
2022/05/31 04:30:33;192335.00;0.64;332.73;81915.00;0.27;142.35;;;;;15.50;1.00;;;;;;2288556;60;1086;-84
2022/05/31 04:33:00;297705.00;0.99;513.97;79976.00;0.27;139.00;;;;;15.90;1.00;;;;;;2288461;60;1097;-84
2022/05/31 04:35:27;300950.00;1.00;519.55;79474.00;0.26;138.13;;;;;16.10;1.00;;;;;;2288429;60;1359;-85
2022/05/31 04:37:55;312870.00;1.04;540.04;75828.00;0.25;131.83;;;;;16.00;1.00;;;;;;2288425;60;1624;-85
2022/05/31 04:40:24;437667.00;1.46;754.57;83390.00;0.28;144.89;;;;;15.70;1.00;;;;;;2288295;60;1524;-84
2022/05/31 04:42:51;204041.00;0.68;352.88;76455.00;0.25;132.91;;;;;15.90;1.00;;;;;;2288457;60;1607;-84
2022/05/31 04:45:18;263864.00;0.88;455.79;82473.00;0.27;143.31;;;;;16.00;1.00;;;;;;2288437;60;1271;-84
2022/05/31 04:47:46;254531.00;0.85;439.74;85779.00;0.29;149.02;;;;;15.80;1.00;;;;;;2288415;60;1997;-84
2022/05/31 04:50:13;307740.00;1.03;531.22;85922.00;0.29;149.27;;;;;15.70;1.00;;;;;;2288471;60;1097;-84
2022/05/31 04:52:40;488216.00;1.63;841.54;126026.00;0.42;218.48;;;;;15.50;1.00;;;;;;2288512;60;1077;-84
2022/05/31 04:55:09;222720.00;0.74;385.02;86900.00;0.29;150.95;;;;;15.80;1.00;;;;;;2288405;60;1297;-83
2022/05/31 04:57:36;354786.00;1.18;612.09;75504.00;0.25;131.27;;;;;16.20;1.00;;;;;;2288367;60;998;-84
2022/05/31 05:00:03;241296.00;0.80;416.98;82927.00;0.28;144.09;;;;;16.50;1.00;;;;;;2288364;60;1079;-84
2022/05/31 05:02:30;285262.00;0.95;492.58;85195.00;0.28;148.01;;;;;16.60;1.00;;;;;;2288248;60;1149;-84
2022/05/31 05:04:57;230570.00;0.77;398.53;81965.00;0.27;142.43;;;;;16.80;1.00;;;;;;2288382;60;1361;-84
2022/05/31 05:07:24;292744.00;0.98;505.45;83059.00;0.28;144.32;;;;;17.20;1.00;;;;;;2288348;60;2220;-83
2022/05/31 05:09:51;323475.00;1.08;558.27;85233.00;0.28;148.08;;;;;17.20;1.00;;;;;;2288350;60;1606;-83
2022/05/31 05:12:20;310106.00;1.03;535.29;84184.00;0.28;146.26;;;;;17.30;1.00;;;;;;2288470;60;1065;-84
2022/05/31 05:14:47;362169.00;1.21;624.78;81061.00;0.27;140.87;;;;;17.00;1.00;;;;;;2289099;60;1377;-84
2022/05/31 05:17:14;464623.00;1.55;800.94;111023.00;0.37;192.60;;;;;16.60;1.00;;;;;;2289070;60;1055;-84
2022/05/31 05:19:41;258157.00;0.86;445.98;89559.00;0.30;155.55;;;;;16.60;1.00;;;;;;2289150;60;1059;-85
2022/05/31 05:22:08;309178.00;1.03;533.70;37512.00;0.13;65.58;;;;;17.10;1.00;;;;;;2288725;60;1086;-84
2022/05/31 05:24:35;192917.00;0.64;333.73;81990.00;0.27;142.47;;;;;17.00;1.00;;;;;;2289047;60;1383;-84
2022/05/31 05:27:02;328076.00;1.09;566.18;77041.00;0.26;133.93;;;;;17.10;1.00;;;;;;2288974;60;2275;-84
2022/05/31 05:32:14;505855.00;1.69;871.90;0.00;0.00;0.62;;;;;16.40;1.00;;;;;;2289052;60;586;-84
2022/05/31 05:34:41;238162.00;0.79;411.59;87057.00;0.29;151.23;;;;;16.50;1.00;;;;;;2288984;60;1677;-84
2022/05/31 05:37:08;257760.00;0.86;445.30;85408.00;0.28;148.38;;;;;16.80;1.00;;;;;;2288858;60;1029;-84
2022/05/31 05:39:35;285981.00;0.95;493.82;76394.00;0.25;132.81;;;;;17.10;1.00;;;;;;2288804;60;1406;-85
2022/05/31 05:42:02;253045.00;0.84;437.19;84521.00;0.28;146.85;;;;;17.10;1.00;;;;;;2289023;60;1054;-85
2022/05/31 05:44:30;242041.00;0.81;418.26;83172.00;0.28;144.52;;;;;17.20;1.00;;;;;;2289006;60;1275;-84
2022/05/31 05:46:57;231039.00;0.77;399.34;87235.00;0.29;151.53;;;;;17.10;1.00;;;;;;2288992;60;1997;-85
2022/05/31 05:49:24;171622.00;0.57;297.06;73904.00;0.25;128.51;;;;;16.90;1.00;;;;;;2289015;60;1111;-84
2022/05/31 05:51:51;217401.00;0.72;375.87;79890.00;0.27;138.85;;;;;16.60;1.00;;;;;;2288954;60;1054;-84
2022/05/31 05:54:18;216406.00;0.72;374.16;70959.00;0.24;123.42;;;;;16.60;1.00;;;;;;2288794;60;1340;-85
2022/05/31 05:56:45;218787.00;0.73;378.26;80990.00;0.27;140.75;;;;;16.40;1.00;;;;;;2288870;60;1161;-84
2022/05/31 05:59:12;401127.00;1.34;691.74;83572.00;0.28;145.21;;;;;16.70;1.00;;;;;;2288934;60;1140;-84
2022/05/31 06:01:45;175454.00;0.58;303.66;81095.00;0.27;140.93;;;;;17.50;1.00;;;;;;2288958;60;1092;-84
2022/05/31 06:04:17;267762.00;0.89;462.50;88283.00;0.29;153.34;;;;;18.00;1.00;;;;;;2288856;60;1386;-85
2022/05/31 06:06:45;215805.00;0.72;373.13;71334.00;0.24;124.07;;;;;18.10;1.00;;;;;;2288918;60;1915;-84
2022/05/31 06:09:17;189616.00;0.63;328.05;65860.00;0.22;114.61;;;;;18.10;1.00;;;;;;2288873;60;1042;-83
2022/05/31 06:11:50;386062.00;1.29;665.85;118225.00;0.39;205.02;;;;;17.80;1.00;;;;;;2288876;60;2158;-84
2022/05/31 06:14:23;183208.00;0.61;317.01;84003.00;0.28;145.95;;;;;17.90;1.00;;;;;;2288797;60;1724;-84
2022/05/31 06:16:56;291344.00;0.97;503.04;91739.00;0.31;159.31;;;;;18.00;1.00;;;;;;2288866;60;1006;-83
2022/05/31 06:19:30;266375.00;0.89;460.11;62419.00;0.21;108.66;;;;;18.40;1.00;;;;;;2288772;60;1012;-83
2022/05/31 06:21:57;277437.00;0.92;479.13;85370.00;0.28;148.31;;;;;18.50;1.00;;;;;;2288783;60;1046;-84
2022/05/31 06:24:24;258462.00;0.86;446.50;80703.00;0.27;140.25;;;;;19.30;1.00;;;;;;2288721;60;1301;-84
2022/05/31 06:26:51;187731.00;0.63;324.80;81854.00;0.27;142.24;;;;;20.40;1.00;;;;;;2288823;60;1986;-85
2022/05/31 06:29:18;276002.00;0.92;476.66;87191.00;0.29;151.46;;;;;21.30;1.00;;;;;;2288861;60;1125;-84
2022/05/31 06:31:45;277599.00;0.93;479.41;82017.00;0.27;142.52;;;;;22.30;1.00;;;;;;2288785;60;1586;-85
2022/05/31 06:34:13;171222.00;0.57;296.37;83712.00;0.28;145.45;;;;;22.90;1.00;;;;;;2288854;60;1414;-85
2022/05/31 06:36:40;176018.00;0.59;304.63;78467.00;0.26;136.39;;;;;23.10;1.00;;;;;;2288762;60;983;-85
2022/05/31 06:39:08;190231.00;0.63;329.11;78863.00;0.26;137.07;;;;;23.60;1.00;;;;;;2288827;60;1005;-84
2022/05/31 06:41:36;211846.00;0.71;366.31;81663.00;0.27;141.91;;;;;25.00;1.00;;;;;;2288779;60;2363;-84
2022/05/31 06:44:03;178261.00;0.59;308.49;78072.00;0.26;135.71;;;;;25.70;1.00;;;;;;2288806;60;1431;-83
2022/05/31 06:46:31;171083.00;0.57;296.13;74166.00;0.25;128.96;;;;;26.30;1.00;;;;;;2288829;60;1101;-84
2022/05/31 06:49:00;265005.00;0.88;457.76;76531.00;0.26;133.04;;;;;26.60;1.00;;;;;;2288775;60;2024;-85
2022/05/31 06:57:00;422621.00;1.41;728.70;46171.00;0.15;80.56;;;;;26.00;1.00;;;;;;2288817;60;658;-85
2022/05/31 06:59:28;178068.00;0.59;308.16;76777.00;0.26;133.47;;;;;26.40;1.00;;;;;;2288705;60;1140;-84
2022/05/31 07:02:03;170745.00;0.57;295.55;78645.00;0.26;136.70;;;;;27.40;1.00;;;;;;2288706;60;1186;-86
2022/05/31 07:04:30;252566.00;0.84;436.36;79529.00;0.27;138.22;;;;;28.10;1.00;;;;;;2288710;60;1357;-86
2022/05/31 07:06:58;263082.00;0.88;454.45;84083.00;0.28;146.09;;;;;28.30;1.00;;;;;;2288783;60;1108;-85
2022/05/31 07:09:25;204890.00;0.68;354.34;58337.00;0.19;101.60;;;;;28.10;1.00;;;;;;2288547;60;2004;-85
2022/05/31 07:11:52;259684.00;0.87;448.61;76630.00;0.26;133.22;;;;;27.30;1.00;;;;;;2288625;60;1085;-86
2022/05/31 07:14:19;201932.00;0.67;349.25;71238.00;0.24;123.90;;;;;26.70;1.00;;;;;;2288655;60;1277;-84
2022/05/31 07:16:46;210241.00;0.70;363.55;75423.00;0.25;131.13;;;;;27.30;1.00;;;;;;2288763;60;1015;-85
2022/05/31 07:19:16;404861.00;1.35;698.16;114098.00;0.38;197.90;;;;;27.80;1.00;;;;;;2288681;60;1435;-83
2022/05/31 07:21:43;304285.00;1.01;525.29;77180.00;0.26;134.17;;;;;28.20;1.00;;;;;;2288656;60;1126;-85
2022/05/31 07:24:16;242169.00;0.81;418.48;80352.00;0.27;139.65;;;;;28.20;1.00;;;;;;2288643;60;1292;-84
2022/05/31 07:26:43;243551.00;0.81;420.86;73688.00;0.25;128.13;;;;;28.90;1.00;;;;;;2288652;60;1093;-85
2022/05/31 07:29:10;223391.00;0.74;386.18;75162.00;0.25;130.68;;;;;30.00;1.00;;;;;;2288633;60;1955;-86
2022/05/31 07:31:38;269623.00;0.90;465.70;77362.00;0.26;134.48;;;;;31.20;1.00;;;;;;2288717;60;1117;-84
2022/05/31 07:34:06;262663.00;0.88;453.73;71455.00;0.24;124.27;;;;;31.00;1.00;;;;;;2288569;60;1379;-85
2022/05/31 07:36:33;247374.00;0.82;427.43;75459.00;0.25;131.19;;;;;30.20;1.00;;;;;;2288441;60;1635;-84
2022/05/31 07:39:00;280539.00;0.94;484.46;80325.00;0.27;139.60;;;;;29.80;1.00;;;;;;2288604;60;1093;-85
2022/05/31 07:41:28;178962.00;0.60;309.70;71230.00;0.24;123.89;;;;;30.10;1.00;;;;;;2288561;60;2095;-85
2022/05/31 07:43:55;301750.00;1.01;520.93;78724.00;0.26;136.83;;;;;30.50;1.00;;;;;;2288461;60;1393;-86
2022/05/31 07:46:22;274725.00;0.92;474.47;77574.00;0.26;134.85;;;;;31.40;1.00;;;;;;2288601;60;1105;-85
2022/05/31 07:48:49;186848.00;0.62;323.28;76783.00;0.26;133.48;;;;;32.10;1.00;;;;;;2288603;60;1927;-85
2022/05/31 07:51:16;188938.00;0.63;326.88;78402.00;0.26;136.28;;;;;32.20;1.00;;;;;;2288532;60;1048;-86
2022/05/31 07:53:43;172514.00;0.58;298.60;70795.00;0.24;123.13;;;;;31.60;1.00;;;;;;2288602;60;1273;-86
2022/05/31 07:56:10;174703.00;0.58;302.37;67342.00;0.22;117.17;;;;;31.00;1.00;;;;;;2288576;60;1052;-86
2022/05/31 07:58:42;166516.00;0.56;288.27;67049.00;0.22;116.66;;;;;30.90;1.00;;;;;;2288516;60;1058;-86
2022/05/31 08:01:11;165977.00;0.55;287.34;59653.00;0.20;103.88;;;;;30.20;1.00;;;;;;2288542;60;1039;-85
2022/05/31 08:03:38;252969.00;0.84;437.06;69670.00;0.23;121.19;;;;;29.70;1.00;;;;;;2288465;60;1117;-85
2022/05/31 08:06:08;349599.00;1.17;603.17;69916.00;0.23;121.62;;;;;29.60;1.00;;;;;;2288321;60;1429;-86
2022/05/31 08:08:36;363298.00;1.21;626.72;62716.00;0.21;109.17;;;;;30.40;1.00;;;;;;2288398;60;2008;-86
2022/05/31 08:11:05;224063.00;0.75;387.33;80190.00;0.27;139.37;;;;;31.00;1.00;;;;;;2288439;60;1004;-86
2022/05/31 08:13:32;112930.00;0.38;195.89;0.00;0.00;0.62;;;;;31.70;1.00;;;;;;2288359;60;1430;-86
2022/05/31 08:16:04;133788.00;0.45;231.86;0.00;0.00;0.62;;;;;32.00;1.00;;;;;;2288384;60;1433;-86
2022/05/31 08:18:33;331166.00;1.10;571.49;73220.00;0.24;127.32;;;;;32.10;1.00;;;;;;2288430;60;1489;-86
2022/05/31 08:21:01;315397.00;1.05;544.39;69844.00;0.23;121.49;;;;;32.10;1.00;;;;;;2288281;60;1465;-85
2022/05/31 08:23:28;177988.00;0.59;308.02;77283.00;0.26;134.34;;;;;31.90;1.00;;;;;;2288455;60;1216;-85
2022/05/31 08:25:55;194441.00;0.65;336.35;76483.00;0.25;132.96;;;;;31.60;1.00;;;;;;2288386;60;1433;-87
2022/05/31 08:28:22;227570.00;0.76;393.37;74282.00;0.25;129.16;;;;;31.70;1.00;;;;;;2288268;60;2006;-86
2022/05/31 08:30:52;0.00;0.00;0.62;0.00;0.00;0.62;;;;;31.90;1.00;;;;;;2288418;60;1127;-85
2022/05/31 08:33:24;76331.00;0.25;132.70;0.00;0.00;0.62;;;;;32.10;1.00;;;;;;2288478;60;1532;-85
2022/05/31 08:35:51;181643.00;0.61;314.32;66906.00;0.22;116.41;;;;;31.80;1.00;;;;;;2288394;60;1384;-85
2022/05/31 08:38:18;165728.00;0.55;286.91;68066.00;0.23;118.42;;;;;31.80;1.00;;;;;;2288452;60;1110;-85
2022/05/31 08:41:04;609545.00;2.03;1050.70;186806.00;0.62;323.21;;;;;31.60;1.00;;;;;;2288400;60;949;-85
2022/05/31 08:43:48;250000.00;0.83;431.95;72218.00;0.24;125.59;;;;;31.70;1.00;;;;;;2288496;60;1023;-85
2022/05/31 08:46:23;358172.00;1.19;617.91;72986.00;0.24;126.92;;;;;31.40;1.00;;;;;;2288474;60;1133;-84
2022/05/31 08:48:58;169162.00;0.56;292.82;68061.00;0.23;118.41;;;;;29.80;1.00;;;;;;2289175;60;1913;-84
2022/05/31 08:51:54;261032.00;0.87;450.92;69236.00;0.23;120.44;;;;;29.40;1.00;;;;;;2289159;60;1005;-85
2022/05/31 08:57:28;588561.00;1.96;1014.47;71512.00;0.24;124.37;;;;;30.70;1.00;;;;;;2289184;60;720;-84
2022/05/31 09:00:01;128012640.00;426.71;84994832.00;127846704.00;426.16;84664400.00;;;;;30.90;1.00;;;;;;2289192;60;1137;-84
2022/05/31 09:02:32;180844.00;0.60;312.94;70951.00;0.24;123.40;;;;;30.20;1.00;;;;;;2289170;60;1233;-86
2022/05/31 09:05:06;121954200.00;406.51;73479136.00;62219.00;0.21;108.31;;;;;30.40;1.00;;;;;;2289106;60;1412;-86
2022/05/31 09:07:39;206201.00;0.69;356.60;51844.00;0.17;90.38;;;;;30.80;1.00;;;;;;2288967;60;968;-86
2022/05/31 09:10:13;216180.00;0.72;373.77;68801.00;0.23;119.69;;;;;30.60;1.00;;;;;;2289082;60;1102;-86
2022/05/31 09:12:50;200749.00;0.67;347.21;66320.00;0.22;115.40;;;;;31.00;1.00;;;;;;2289025;60;1443;-87
2022/05/31 09:15:23;174798.00;0.58;302.53;74268.00;0.25;129.13;;;;;31.30;1.00;;;;;;2289003;60;1476;-85
2022/05/31 09:18:04;166725.00;0.56;288.63;63093.00;0.21;109.82;;;;;31.20;1.00;;;;;;2289126;60;1058;-86
2022/05/31 09:20:40;336707.00;1.12;581.01;119700.00;0.40;207.56;;;;;30.60;1.00;;;;;;2289079;60;1374;-86
2022/05/31 09:23:08;234290.00;0.78;404.93;72151.00;0.24;125.48;;;;;30.10;1.00;;;;;;2289081;60;1046;-85
2022/05/31 09:25:40;251161.00;0.84;433.95;87570.00;0.29;152.11;;;;;29.90;1.00;;;;;;2288994;60;1369;-86
2022/05/31 09:28:23;459431.00;1.53;792.01;158382.00;0.53;274.25;;;;;29.50;1.00;;;;;;2289060;60;1982;-85
2022/05/31 09:30:50;65681.00;0.22;114.30;0.00;0.00;0.62;;;;;29.10;1.00;;;;;;2289087;60;1121;-87
2022/05/31 09:33:24;135405.00;0.45;234.65;33638.00;0.11;58.88;;;;;28.20;1.00;;;;;;2289080;60;1108;-85
2022/05/31 09:36:13;82043.00;0.27;142.57;0.00;0.00;0.62;;;;;27.80;1.00;;;;;;2288967;60;1352;-84
2022/05/31 09:39:12;0.00;0.00;0.62;0.00;0.00;0.62;;;;;28.10;1.00;;;;;;2289000;60;1173;-84
2022/05/31 09:41:45;214671.00;0.72;371.17;73501.00;0.25;127.81;;;;;28.50;1.00;;;;;;2288984;60;1052;-85
2022/05/31 09:44:20;0.00;0.00;0.62;0.00;0.00;0.62;;;;;28.50;1.00;;;;;;2288747;60;1384;-85
2022/05/31 09:46:53;47615.00;0.16;83.06;0.00;0.00;0.62;;;;;28.60;1.00;;;;;;2288880;60;1551;-85
2022/05/31 09:49:32;52837.00;0.18;92.09;0.00;0.00;0.62;;;;;28.50;1.00;;;;;;2288836;60;1911;-85
2022/05/31 09:52:01;0.00;0.00;0.62;0.00;0.00;0.62;;;;;28.50;1.00;;;;;;2288802;60;1099;-84
2022/05/31 09:57:21;184743.00;0.62;319.66;75898.00;0.25;131.95;;;;;28.40;1.00;;;;;;2289015;60;685;-84
2022/05/31 09:59:51;342141.00;1.14;590.35;97910.00;0.33;169.96;;;;;28.60;1.00;;;;;;2288704;60;1063;-84
2022/05/31 10:02:29;42848.00;0.14;74.82;0.00;0.00;0.62;;;;;28.40;1.00;;;;;;2288949;60;1020;-85
2022/05/31 10:05:21;22830.00;0.08;40.17;0.00;0.00;0.62;;;;;27.90;1.00;;;;;;2288940;60;1440;-85
2022/05/31 10:07:50;308705.00;1.03;532.88;71152.00;0.24;123.75;;;;;27.60;1.00;;;;;;2288930;60;1154;-86
2022/05/31 10:10:24;0.00;0.00;0.62;0.00;0.00;0.62;;;;;27.70;1.00;;;;;;2288954;60;1931;-85